McLean, IL (61754)

7:09 AM CST on December 05, 2016 (GMT -0600)
BFE Armington | | Change Station

Elev 627 ft 40.34 °N, 89.31 °W | Updated 56 seconds ago

Overcast
Overcast
33.1 °F
Feels Like 33 °F
N
0.0
Wind Variable Wind from SSW

Today
High -- | Low -- °F
--% Chance of Precip.
Yesterday
High -- | Low -- °F
Precip. -- in
Pressure 30.05 in
Visibility 4.0 miles
Clouds Overcast 600 ft
Windchill 33 °F
Dew Point 33 °F
Humidity 99%
Rainfall 0.17 in
Snow Depth Not available.
7:04 AM 4:30 PM
Waxing Crescent, 31% visible
METAR KAAA 051255Z AUTO 18004KT 4SM BR OVC006 01/01 A3005 RMK AO2 T00100010
Pressure 30.05 in
Visibility 4.0 miles
Clouds Overcast 600 ft
Windchill 33 °F
Dew Point 33 °F
Humidity 99%
Rainfall 0.17 in
Snow Depth Not available.
7:04 AM 4:30 PM
Waxing Crescent, 31% visible
METAR KAAA 051255Z AUTO 18004KT 4SM BR OVC006 01/01 A3005 RMK AO2 T00100010

10-Day Weather Forecast

Almanac

Astronomy

Dec. 05, 2016 Rise Set
Actual Time
Civil Twilight
Nautical Twilight
Astronomical Twilight
Moon
Length of Visible Light
Length of Day
Tomorrow will be .
, % of the Moon is Illuminated

Today's Extremes

State Highs State Lows

Community

WunderPhotos

Upload Photos

1,955,780 photos uploaded!

WunderBlog® & News

Nearby

Air Quality

  Air Quality AQ Index Pollutant
Not available.

Snow Depth

Station Depth Elevation

Earthquake Activity

City Distance Mag. Time & Date
Minimum magnitude displayed is 2.5.

Coastal Water Temperatures

Place Temperature

Stations

Nearby Weather Stations

Station Location Temp. Windchill Dew Point Humidity Wind Precip. Elev Updated Type
                   

Watches & Warnings

There are currently no watches in effect.